createdAt,value
2019-05-29T00:00:37.233Z,11.17
2019-05-29T00:01:37.063Z,11.18
2019-05-29T00:02:37.094Z,11.22
2019-05-29T00:03:36.853Z,11.25
2019-05-29T00:04:36.878Z,11.24
2019-05-29T00:05:37.146Z,11.19
2019-05-29T00:07:37.183Z,11.27
2019-05-29T00:08:36.980Z,11.25
2019-05-29T00:09:37.227Z,11.27
2019-05-29T00:10:37.241Z,11.24
2019-05-29T00:11:51.923Z,11.17
2019-05-29T00:12:37.278Z,11.09
2019-05-29T00:13:37.329Z,11.03
2019-05-29T00:14:37.319Z,10.96
2019-05-29T00:15:37.346Z,10.99
2019-05-29T00:16:37.356Z,11.02
2019-05-29T00:17:52.047Z,10.96
2019-05-29T00:18:37.394Z,10.99
2019-05-29T00:19:37.419Z,10.92
2019-05-29T00:20:37.438Z,11.04
2019-05-29T00:21:37.463Z,11.06
2019-05-29T00:22:37.477Z,11.02
2019-05-29T00:23:52.159Z,11.02
2019-05-29T00:24:37.514Z,11.04
2019-05-29T00:27:52.237Z,10.97
2019-05-29T00:28:37.609Z,11
2019-05-29T00:29:37.368Z,10.94
2019-05-29T00:30:37.635Z,11.03
2019-05-29T00:31:37.652Z,10.99
2019-05-29T00:32:52.390Z,10.97
2019-05-29T00:33:37.197Z,10.94
2019-05-29T00:34:37.712Z,11
2019-05-29T00:35:37.728Z,10.97
2019-05-29T00:36:52.415Z,11.02
2019-05-29T00:37:37.768Z,11.06
2019-05-29T00:38:37.540Z,11.02
2019-05-29T00:39:52.470Z,11.02
2019-05-29T00:40:37.833Z,11.03
2019-05-29T00:41:37.850Z,11.02
2019-05-29T00:42:37.868Z,10.89
2019-05-29T00:43:52.555Z,10.97
2019-05-29T00:44:39.531Z,10.91
2019-05-29T00:45:37.933Z,10.92
2019-05-29T00:46:37.943Z,11
2019-05-29T00:47:37.974Z,10.94
2019-05-29T00:48:37.733Z,11
2019-05-29T00:49:38.007Z,10.94
2019-05-29T00:50:38.019Z,10.99
2019-05-29T00:51:38.041Z,10.88
2019-05-29T00:52:38.059Z,10.86
2019-05-29T00:53:37.828Z,10.85
2019-05-29T00:54:52.763Z,10.86
2019-05-29T00:55:38.116Z,10.94
2019-05-29T00:56:38.135Z,10.88
2019-05-29T00:57:38.160Z,10.97
2019-05-29T00:58:52.842Z,10.89
2019-05-29T00:59:38.194Z,10.88
2019-05-29T01:00:38.214Z,10.89
2019-05-29T01:02:38.267Z,10.96
2019-05-29T01:03:38.030Z,10.96
2019-05-29T01:04:38.292Z,10.97
2019-05-29T01:05:38.318Z,10.91
2019-05-29T01:06:38.346Z,10.91
2019-05-29T01:07:38.351Z,10.88
2019-05-29T01:08:38.377Z,10.92
2019-05-29T01:09:38.404Z,10.88
2019-05-29T01:10:38.408Z,10.92
2019-05-29T01:11:38.426Z,10.89
2019-05-29T01:12:38.450Z,10.97
2019-05-29T01:15:38.503Z,11
2019-05-29T01:16:38.527Z,11
2019-05-29T01:17:38.315Z,10.91
2019-05-29T01:18:38.566Z,10.91
2019-05-29T01:19:38.622Z,11.02
2019-05-29T01:20:38.601Z,10.94
2019-05-29T01:21:38.626Z,11.03
2019-05-29T01:22:38.665Z,10.94
2019-05-29T01:23:38.665Z,10.96
2019-05-29T01:24:53.348Z,10.96
2019-05-29T01:25:53.363Z,10.97
2019-05-29T01:26:38.721Z,11
2019-05-29T01:28:38.760Z,11
2019-05-29T01:29:38.777Z,10.99
2019-05-29T01:30:54.107Z,10.89
2019-05-29T01:31:38.820Z,10.94
2019-05-29T01:32:38.835Z,10.94
2019-05-29T01:33:38.855Z,10.96
2019-05-29T01:34:38.872Z,10.96
2019-05-29T01:37:38.932Z,10.86
2019-05-29T01:38:38.698Z,10.88
2019-05-29T01:39:39.028Z,10.94
2019-05-29T01:40:38.984Z,11
2019-05-29T01:41:39.019Z,10.86
2019-05-29T01:42:39.026Z,10.89
2019-05-29T01:43:38.797Z,10.86
2019-05-29T01:44:39.064Z,10.85
2019-05-29T01:45:39.083Z,10.89
2019-05-29T01:46:53.771Z,10.85
2019-05-29T01:48:39.144Z,10.88
2019-05-29T01:49:39.160Z,10.85
2019-05-29T01:50:39.188Z,10.84
2019-05-29T01:51:39.198Z,10.88
2019-05-29T01:53:38.988Z,10.74
2019-05-29T01:54:39.258Z,10.84
2019-05-29T01:55:39.272Z,10.88
2019-05-29T01:56:39.295Z,10.88
2019-05-29T01:57:53.979Z,10.82
2019-05-29T01:58:39.082Z,10.74
2019-05-29T01:59:54.018Z,10.73
2019-05-29T02:00:39.388Z,10.73
2019-05-29T02:02:54.083Z,10.73
2019-05-29T02:03:39.213Z,10.73
2019-05-29T02:04:39.480Z,10.82
2019-05-29T02:05:39.465Z,10.81
2019-05-29T02:06:39.485Z,10.86
2019-05-29T02:07:39.513Z,10.7
2019-05-29T02:08:39.521Z,10.7
2019-05-29T02:09:39.549Z,10.82
2019-05-29T02:10:39.566Z,10.71
2019-05-29T02:11:39.581Z,10.7
2019-05-29T02:12:39.600Z,10.76
2019-05-29T02:13:39.372Z,10.7
2019-05-29T02:14:39.640Z,10.79
2019-05-29T02:15:39.657Z,10.7
2019-05-29T02:16:39.680Z,10.59
2019-05-29T02:17:39.794Z,10.68
2019-05-29T02:18:54.376Z,10.7
2019-05-29T02:19:39.731Z,10.67
2019-05-29T02:20:39.785Z,10.68
2019-05-29T02:21:39.782Z,10.7
2019-05-29T02:22:39.788Z,10.66
2019-05-29T02:23:39.557Z,10.81
2019-05-29T02:24:39.832Z,10.68
2019-05-29T02:25:39.849Z,10.64
2019-05-29T02:26:39.866Z,10.61
2019-05-29T02:27:39.891Z,10.63
2019-05-29T02:28:39.654Z,10.68
2019-05-29T02:29:40.131Z,10.74
2019-05-29T02:30:39.950Z,10.67
2019-05-29T02:31:54.626Z,10.67
2019-05-29T02:32:39.986Z,10.64
2019-05-29T02:33:54.664Z,10.67
2019-05-29T02:34:40.035Z,10.67
2019-05-29T02:35:40.056Z,10.67
2019-05-29T02:36:40.075Z,10.64
2019-05-29T02:37:54.747Z,10.67
2019-05-29T02:38:39.849Z,10.64
2019-05-29T02:39:40.115Z,10.63
2019-05-29T02:40:40.133Z,10.64
2019-05-29T02:41:40.154Z,10.61
2019-05-29T02:42:40.173Z,10.56
2019-05-29T02:43:39.968Z,10.61
2019-05-29T02:44:40.233Z,10.55
2019-05-29T02:45:57.878Z,10.53
2019-05-29T02:46:40.258Z,10.59
2019-05-29T02:47:40.273Z,10.61
2019-05-29T02:48:40.311Z,10.55
2019-05-29T02:49:39.813Z,10.55
2019-05-29T02:50:40.345Z,10.42
2019-05-29T02:51:40.351Z,10.6
2019-05-29T02:52:40.366Z,10.6
2019-05-29T02:53:55.052Z,10.61
2019-05-29T02:55:55.089Z,10.53
2019-05-29T02:56:44.890Z,10.44
2019-05-29T02:57:40.467Z,10.66
2019-05-29T02:58:40.487Z,10.52
2019-05-29T02:59:40.511Z,10.61
2019-05-29T03:00:40.520Z,10.56
2019-05-29T03:01:40.547Z,10.6
2019-05-29T03:03:44.562Z,10.67
2019-05-29T03:04:40.613Z,10.66
2019-05-29T03:05:55.290Z,10.67
2019-05-29T03:06:55.045Z,10.52
2019-05-29T03:07:40.649Z,10.47
2019-05-29T03:08:55.081Z,10.51
2019-05-29T03:09:40.685Z,10.52
2019-05-29T03:10:40.714Z,10.55
2019-05-29T03:11:40.727Z,10.45
2019-05-29T03:12:40.764Z,10.56
2019-05-29T03:13:40.519Z,10.59
2019-05-29T03:14:40.543Z,10.47
2019-05-29T03:15:40.804Z,10.51
2019-05-29T03:16:40.825Z,10.59
2019-05-29T03:17:40.601Z,10.68
2019-05-29T03:18:40.876Z,10.71
2019-05-29T03:19:40.879Z,10.74
2019-05-29T03:20:40.900Z,10.71
2019-05-29T03:22:40.964Z,10.81
2019-05-29T03:24:40.736Z,10.64
2019-05-29T03:25:41.856Z,10.6
2019-05-29T03:26:43.055Z,10.64
2019-05-29T03:27:42.753Z,10.67
2019-05-29T03:28:42.924Z,10.7
2019-05-29T03:29:43.367Z,10.68
2019-05-29T03:30:49.724Z,10.64
2019-05-29T03:31:51.299Z,10.73
2019-05-29T03:32:51.438Z,10.74
2019-05-29T03:33:53.148Z,10.84
2019-05-29T03:34:50.598Z,10.88
2019-05-29T03:35:51.356Z,10.86
2019-05-29T03:36:51.820Z,10.86
2019-05-29T03:37:58.735Z,10.91
2019-05-29T03:38:41.244Z,10.94
2019-05-29T03:39:41.264Z,10.89
2019-05-29T03:40:41.282Z,10.92
2019-05-29T03:41:41.593Z,10.96
2019-05-29T03:43:41.320Z,10.85
2019-05-29T03:44:41.384Z,10.82
2019-05-29T03:45:42.855Z,10.86
2019-05-29T03:46:49.419Z,10.96
2019-05-29T03:47:42.124Z,10.92
2019-05-29T03:49:42.224Z,10.97
2019-05-29T03:50:43.089Z,10.92
2019-05-29T03:51:43.688Z,10.92
2019-05-29T03:52:43.555Z,10.88
2019-05-29T03:53:56.185Z,10.94
2019-05-29T03:54:58.169Z,10.91
2019-05-29T03:55:57.369Z,10.92
2019-05-29T03:56:41.602Z,10.94
2019-05-29T03:57:43.019Z,10.97
2019-05-29T03:58:42.580Z,10.91
2019-05-29T03:59:42.271Z,10.91
2019-05-29T04:00:51.844Z,10.85
2019-05-29T04:02:43.170Z,10.86
2019-05-29T04:03:43.090Z,10.92
2019-05-29T04:04:43.123Z,10.91
2019-05-29T04:06:46.434Z,10.97
2019-05-29T04:07:42.995Z,11.06
2019-05-29T04:08:56.475Z,11.04
2019-05-29T04:09:42.201Z,11.11
2019-05-29T04:10:44.231Z,11.14
2019-05-29T04:11:42.924Z,11.09
2019-05-29T04:12:42.893Z,11.03
2019-05-29T04:13:43.281Z,10.97
2019-05-29T04:14:57.361Z,10.99
2019-05-29T04:15:43.570Z,11.06
2019-05-29T04:17:03.381Z,11.21
2019-05-29T04:17:42.836Z,11.25
2019-05-29T04:18:42.807Z,11.32
2019-05-29T04:19:43.514Z,11.4
2019-05-29T04:20:43.522Z,11.42
2019-05-29T04:21:43.564Z,11.44
2019-05-29T04:22:43.163Z,11.51
2019-05-29T04:23:42.911Z,11.6
2019-05-29T04:24:43.095Z,11.47
2019-05-29T04:25:47.333Z,11.37
2019-05-29T04:26:42.756Z,11.44
2019-05-29T04:27:43.251Z,11.42
2019-05-29T04:28:43.894Z,11.6
2019-05-29T04:29:43.246Z,11.67
2019-05-29T04:31:43.216Z,11.64
2019-05-29T04:32:43.267Z,11.79
2019-05-29T04:34:44.373Z,11.79
2019-05-29T04:35:44.393Z,11.95
2019-05-29T04:36:43.909Z,11.98
2019-05-29T04:37:44.594Z,12.13
2019-05-29T04:38:44.300Z,11.99
2019-05-29T04:39:43.887Z,12.02
2019-05-29T04:40:57.090Z,11.95
2019-05-29T04:41:43.850Z,12.01
2019-05-29T04:42:44.797Z,12.04
2019-05-29T04:43:44.175Z,12.01
2019-05-29T04:44:45.155Z,12.13
2019-05-29T04:45:44.944Z,12.37
2019-05-29T04:46:43.823Z,12.56
2019-05-29T04:47:44.338Z,12.75
2019-05-29T04:48:44.869Z,12.86
2019-05-29T04:49:44.528Z,12.92
2019-05-29T04:50:45.077Z,12.68
2019-05-29T04:51:44.310Z,12.67
2019-05-29T04:52:44.831Z,12.56
2019-05-29T04:53:44.364Z,12.37
2019-05-29T04:54:44.917Z,12.59
2019-05-29T04:55:43.782Z,12.42
2019-05-29T04:56:57.414Z,12.42
2019-05-29T04:57:44.098Z,12.46
2019-05-29T04:58:43.912Z,12.54
2019-05-29T04:59:44.053Z,12.47
2019-05-29T05:01:00.515Z,12.12
2019-05-29T05:01:44.061Z,11.78
2019-05-29T05:02:44.161Z,11.9
2019-05-29T05:03:43.858Z,11.99
2019-05-29T05:04:44.182Z,12.19
2019-05-29T05:05:44.306Z,12.17
2019-05-29T05:06:44.224Z,12.2
2019-05-29T05:07:59.017Z,12.2
2019-05-29T05:08:44.212Z,12.34
2019-05-29T05:09:44.380Z,12.34
2019-05-29T05:10:43.694Z,12.27
2019-05-29T05:11:43.056Z,12.21
2019-05-29T05:12:57.780Z,12.23
2019-05-29T05:13:43.095Z,12.1
2019-05-29T05:14:43.115Z,12.24
2019-05-29T05:15:43.150Z,12.23
2019-05-29T05:16:57.829Z,12.17
2019-05-29T05:17:43.191Z,12.35
2019-05-29T05:18:43.196Z,12.35
2019-05-29T05:19:43.221Z,12.59
2019-05-29T05:22:43.271Z,12.82
2019-05-29T05:23:43.302Z,12.82
2019-05-29T05:24:47.473Z,12.86
2019-05-29T05:25:43.571Z,12.78
2019-05-29T05:26:43.365Z,12.56
2019-05-29T05:27:43.380Z,12.79
2019-05-29T05:28:58.093Z,13.07
2019-05-29T05:29:43.427Z,13.3
2019-05-29T05:30:43.214Z,13.62
2019-05-29T05:31:43.466Z,13.92
2019-05-29T05:32:43.827Z,14.43
2019-05-29T05:33:43.701Z,14.51
2019-05-29T05:34:43.633Z,15.2
2019-05-29T05:35:58.298Z,15.53
2019-05-29T05:36:43.690Z,15.47
2019-05-29T05:37:43.699Z,15.97
2019-05-29T05:38:43.726Z,16.48
2019-05-29T05:39:43.876Z,16.91
2019-05-29T05:41:43.817Z,16.68
2019-05-29T05:43:58.395Z,15.71
2019-05-29T05:44:43.886Z,15.69
2019-05-29T05:45:44.040Z,15.8
2019-05-29T05:46:44.019Z,15.92
2019-05-29T05:48:00.465Z,16.3
2019-05-29T05:48:44.217Z,16.34
2019-05-29T05:49:44.336Z,16.21
2019-05-29T05:50:44.229Z,16.58
2019-05-29T05:51:47.940Z,16.68
2019-05-29T05:52:44.275Z,17.26
2019-05-29T05:53:44.355Z,17.51
2019-05-29T05:54:44.350Z,16.93
2019-05-29T05:55:44.603Z,16.94
2019-05-29T05:56:44.525Z,17.23
2019-05-29T05:57:44.553Z,17.44
2019-05-29T05:58:44.928Z,18.15
2019-05-29T05:59:44.691Z,18.85
2019-05-29T06:00:59.392Z,19.11
2019-05-29T06:01:44.867Z,19.78
2019-05-29T06:02:44.939Z,20.52
2019-05-29T06:03:45.173Z,20.5
2019-05-29T06:04:44.862Z,19.63
2019-05-29T06:06:45.065Z,20.69
2019-05-29T06:07:45.268Z,21.19
2019-05-29T06:08:44.823Z,21.13
2019-05-29T06:09:45.259Z,20.26
2019-05-29T06:10:45.086Z,19.61
2019-05-29T06:11:45.180Z,19.44
2019-05-29T06:12:45.423Z,18.87
2019-05-29T06:13:45.367Z,18.92
2019-05-29T06:14:45.447Z,18.73
2019-05-29T06:15:59.215Z,18.73
2019-05-29T06:16:45.489Z,18.07
2019-05-29T06:18:19.715Z,17.66
2019-05-29T06:18:45.697Z,17.99
2019-05-29T06:19:45.999Z,17.86
2019-05-29T06:20:45.799Z,17.41
2019-05-29T06:21:45.703Z,17.28
2019-05-29T06:22:46.144Z,17.03
2019-05-29T06:23:46.280Z,16.91
2019-05-29T06:25:46.680Z,17.93
2019-05-29T06:26:45.870Z,18.47
2019-05-29T06:27:46.189Z,18.76
2019-05-29T06:28:46.107Z,18.81
2019-05-29T06:29:46.097Z,18.6
2019-05-29T06:30:47.611Z,18.41
2019-05-29T06:32:46.323Z,17.68
2019-05-29T06:33:46.625Z,16.96
2019-05-29T06:34:46.373Z,16.91
2019-05-29T06:35:46.446Z,16.48
2019-05-29T06:36:48.197Z,17.15
2019-05-29T06:37:46.458Z,17.38
2019-05-29T06:38:47.048Z,17.55
2019-05-29T06:39:46.545Z,18.41
2019-05-29T06:40:46.816Z,19.25
2019-05-29T06:41:46.786Z,19.18
2019-05-29T06:42:46.386Z,17.97
2019-05-29T06:43:46.434Z,17.23
2019-05-29T06:44:51.648Z,17.28
2019-05-29T06:45:46.486Z,17.43
2019-05-29T06:46:47.639Z,17.78
2019-05-29T06:48:00.031Z,17.63
2019-05-29T06:49:03.062Z,17.56
2019-05-29T06:49:46.713Z,17.56
2019-05-29T06:50:47.522Z,17.31
2019-05-29T06:51:46.136Z,17.18
2019-05-29T06:52:46.198Z,17.55
2019-05-29T06:53:48.095Z,17.28
2019-05-29T06:54:47.938Z,17.62
2019-05-29T06:55:52.860Z,18.08
2019-05-29T06:56:46.528Z,17.95
2019-05-29T06:57:48.318Z,18.32
2019-05-29T06:58:46.692Z,18.36
2019-05-29T06:59:46.975Z,18.94
2019-05-29T07:00:47.293Z,19.08
2019-05-29T07:01:47.649Z,19.32
2019-05-29T07:02:47.213Z,19.77
2019-05-29T07:04:14.164Z,19.74
2019-05-29T07:04:46.966Z,20.02
2019-05-29T07:05:55.593Z,19.87
2019-05-29T07:06:47.124Z,19.99
2019-05-29T07:07:47.211Z,20.5
2019-05-29T07:08:52.322Z,20.64
2019-05-29T07:09:46.890Z,20.85
2019-05-29T07:10:48.496Z,20.61
2019-05-29T07:11:47.439Z,21.19
2019-05-29T07:12:47.222Z,20.92
2019-05-29T07:13:52.306Z,21.61
2019-05-29T07:14:47.205Z,21.35
2019-05-29T07:15:48.554Z,21.29
2019-05-29T07:16:58.782Z,21.24
2019-05-29T07:17:47.352Z,21.28
2019-05-29T07:19:47.382Z,20.7
2019-05-29T07:20:25.505Z,20.41
2019-05-29T07:21:10.865Z,19.83
2019-05-29T07:22:10.904Z,20.16
2019-05-29T07:23:10.682Z,19.4
2019-05-29T07:24:10.953Z,19.26
2019-05-29T07:25:10.993Z,18.7
2019-05-29T07:26:11.009Z,19.54
2019-05-29T07:27:15.892Z,19.8
2019-05-29T07:28:10.826Z,19.55
2019-05-29T07:30:11.125Z,19.48
2019-05-29T07:31:25.817Z,18.75
2019-05-29T07:33:11.089Z,19.29
2019-05-29T07:34:11.233Z,19.43
2019-05-29T07:35:25.935Z,18.87
2019-05-29T07:36:11.296Z,19.22
2019-05-29T07:37:11.328Z,18.72
2019-05-29T07:38:11.098Z,18.69
2019-05-29T07:40:11.405Z,20.24
2019-05-29T07:41:11.194Z,20.73
2019-05-29T07:42:11.459Z,20.47
2019-05-29T07:43:11.267Z,20.38
2019-05-29T07:44:11.523Z,21.1
2019-05-29T07:45:11.552Z,20.92
2019-05-29T07:46:11.329Z,21.35
2019-05-29T07:47:26.270Z,20.26
2019-05-29T07:48:11.644Z,19.69
2019-05-29T07:49:11.684Z,19.37
2019-05-29T07:50:11.693Z,19.47
2019-05-29T07:52:11.759Z,18.8
2019-05-29T07:53:26.442Z,18.1
2019-05-29T07:54:11.900Z,18.57
2019-05-29T07:55:11.842Z,19.19
2019-05-29T07:56:26.984Z,20.02
2019-05-29T07:57:11.885Z,20.01
2019-05-29T07:58:11.916Z,19.66
2019-05-29T07:59:11.961Z,20.72
2019-05-29T08:00:11.966Z,21.06
2019-05-29T08:01:18.281Z,20.31
2019-05-29T08:02:12.026Z,20.39
2019-05-29T08:03:26.726Z,19.88
2019-05-29T08:04:12.087Z,19.77
2019-05-29T08:05:12.117Z,20.48
2019-05-29T08:06:12.254Z,21.29
2019-05-29T08:07:26.837Z,21.32
2019-05-29T08:08:12.194Z,21.43
2019-05-29T08:09:12.226Z,21.56
2019-05-29T08:10:12.255Z,22.27
2019-05-29T08:11:12.279Z,22.97
2019-05-29T08:12:12.308Z,23.01
2019-05-29T08:13:12.346Z,22.82
2019-05-29T08:14:12.368Z,22.58
2019-05-29T08:15:12.391Z,21.38
2019-05-29T08:16:12.429Z,20.39
2019-05-29T08:17:12.461Z,19.76
2019-05-29T08:18:27.215Z,19.99
2019-05-29T08:19:12.731Z,19.19
2019-05-29T08:20:12.959Z,18.8
2019-05-29T08:21:12.557Z,18.14
2019-05-29T08:22:12.591Z,17.75
2019-05-29T08:23:12.614Z,17.66
2019-05-29T08:24:12.640Z,17.34
2019-05-29T08:25:12.673Z,17.23
2019-05-29T08:26:12.693Z,17.34
2019-05-29T08:27:12.723Z,17.64
2019-05-29T08:28:12.783Z,17.28
2019-05-29T08:29:27.438Z,17.23
2019-05-29T08:30:27.465Z,17.3
2019-05-29T08:32:12.858Z,18.82
2019-05-29T08:33:12.895Z,19.81
2019-05-29T08:34:12.908Z,20.61
2019-05-29T08:35:12.950Z,20.73
2019-05-29T08:36:12.956Z,20.47
2019-05-29T08:37:13.001Z,20.41
2019-05-29T08:38:13.010Z,20.74
2019-05-29T08:39:13.032Z,21.38
2019-05-29T08:40:13.060Z,21.58
2019-05-29T08:41:13.084Z,22.07
2019-05-29T08:42:27.824Z,22.18
2019-05-29T08:43:13.148Z,21.43
2019-05-29T08:44:13.174Z,21.32
2019-05-29T08:45:13.206Z,21.82
2019-05-29T08:46:27.887Z,22.3
2019-05-29T08:47:15.765Z,22.42
2019-05-29T08:48:13.279Z,22.82
2019-05-29T08:49:13.305Z,23.55
2019-05-29T08:50:27.996Z,23.8
2019-05-29T08:51:13.362Z,24.21
2019-05-29T08:52:17.238Z,24.85
2019-05-29T08:53:13.427Z,25.03
2019-05-29T08:54:27.813Z,25.24
2019-05-29T08:55:16.253Z,24.39
2019-05-29T08:56:13.500Z,24.84
2019-05-29T08:57:13.534Z,24.68
2019-05-29T08:58:13.620Z,22.95
2019-05-29T08:59:13.586Z,21.24
2019-05-29T09:00:13.617Z,20.21
2019-05-29T09:01:13.645Z,19.84
2019-05-29T09:02:13.684Z,19.74
2019-05-29T09:03:13.706Z,19.44
2019-05-29T09:04:28.415Z,19.28
2019-05-29T09:05:13.762Z,19.14
2019-05-29T09:06:28.222Z,18.7
2019-05-29T09:07:13.813Z,18.55
2019-05-29T09:08:13.837Z,18.1
2019-05-29T09:09:13.868Z,17.77
2019-05-29T09:10:28.563Z,18.3
2019-05-29T09:11:13.918Z,18.84
2019-05-29T09:12:13.958Z,19.23
2019-05-29T09:13:13.986Z,19.46
2019-05-29T09:14:13.996Z,19.96
2019-05-29T09:15:20.113Z,21.07
2019-05-29T09:16:14.056Z,22.05
2019-05-29T09:17:14.660Z,21.79
2019-05-29T09:18:15.014Z,22.07
2019-05-29T09:19:28.789Z,22.52
2019-05-29T09:21:04.278Z,23
2019-05-29T09:21:17.531Z,22.97
2019-05-29T09:22:14.970Z,22.21
2019-05-29T09:23:15.218Z,22.18
2019-05-29T09:24:29.222Z,21.4
2019-05-29T09:25:29.172Z,21.16
2019-05-29T09:26:26.014Z,21.75
2019-05-29T09:27:15.417Z,22.46
2019-05-29T09:28:18.604Z,22.52
2019-05-29T09:29:23.103Z,22.3
2019-05-29T09:30:18.694Z,21.68
2019-05-29T09:31:18.540Z,22.06
2019-05-29T09:32:18.634Z,21.88
2019-05-29T09:33:19.806Z,21.71
2019-05-29T09:34:15.414Z,20.43
2019-05-29T09:35:15.956Z,19.91
2019-05-29T09:36:15.639Z,19.69
2019-05-29T09:38:29.519Z,19.68
2019-05-29T09:39:16.338Z,18.84
2019-05-29T09:40:15.772Z,18.57
2019-05-29T09:41:29.350Z,18.5
2019-05-29T09:42:15.041Z,18.73
2019-05-29T09:43:16.309Z,18.5
2019-05-29T09:44:41.233Z,17.55
2019-05-29T09:45:16.232Z,17.19
2019-05-29T09:46:15.139Z,17.19
2019-05-29T09:48:29.544Z,19.59
2019-05-29T09:49:29.808Z,20.28
2019-05-29T09:50:15.581Z,20.72
2019-05-29T09:51:25.848Z,20.32
2019-05-29T09:52:15.215Z,20.06
2019-05-29T09:53:15.253Z,19.4
2019-05-29T09:54:15.473Z,19
2019-05-29T09:55:15.295Z,18.85
2019-05-29T09:56:29.992Z,19.39
2019-05-29T09:57:17.772Z,20.03
2019-05-29T09:58:15.370Z,21.13
2019-05-29T09:59:15.395Z,21.71
2019-05-29T10:00:15.439Z,22.15
2019-05-29T10:01:28.342Z,22.51
2019-05-29T10:02:15.482Z,23.15
2019-05-29T10:03:15.550Z,23.69
2019-05-29T10:04:15.527Z,24.09
2019-05-29T10:05:15.570Z,24.18
2019-05-29T10:06:15.587Z,24.06
2019-05-29T10:07:15.624Z,23.28
2019-05-29T10:08:19.298Z,22.86
2019-05-29T10:09:30.324Z,22.22
2019-05-29T10:10:15.435Z,22.97
2019-05-29T10:11:16.245Z,23.7
2019-05-29T10:12:15.751Z,23.55
2019-05-29T10:13:15.754Z,22.49
2019-05-29T10:14:15.537Z,21.47
2019-05-29T10:15:15.807Z,20.24
2019-05-29T10:16:15.597Z,19.71
2019-05-29T10:17:32.564Z,19.14
2019-05-29T10:18:36.153Z,18.9
2019-05-29T10:19:15.937Z,19.11
2019-05-29T10:20:30.621Z,20.11
2019-05-29T10:21:15.983Z,19.98
2019-05-29T10:23:16.014Z,21.13
2019-05-29T10:24:16.061Z,21.42
2019-05-29T10:25:16.193Z,21.06
2019-05-29T10:26:16.089Z,21.29
2019-05-29T10:27:16.125Z,21.38
2019-05-29T10:29:04.257Z,20.94
2019-05-29T10:31:12.974Z,20.51
2019-05-29T10:32:12.994Z,20.85
2019-05-29T10:33:13.016Z,21.1
2019-05-29T10:34:27.476Z,21.32
2019-05-29T10:35:13.071Z,21.31
2019-05-29T10:36:13.103Z,21.17
2019-05-29T10:37:13.129Z,20.82
2019-05-29T10:38:13.147Z,21.12
2019-05-29T10:39:15.385Z,20.7
2019-05-29T10:40:13.205Z,21.1
2019-05-29T10:41:13.233Z,21.1
2019-05-29T10:42:13.250Z,21.24
2019-05-29T10:43:13.279Z,20.85
2019-05-29T10:44:17.311Z,20.8
2019-05-29T10:45:27.992Z,20.17
2019-05-29T10:46:13.365Z,20.14
2019-05-29T10:47:13.376Z,20.5
2019-05-29T10:49:13.471Z,20.58
2019-05-29T10:50:28.115Z,20.5
2019-05-29T10:51:13.536Z,20.36
2019-05-29T10:52:21.046Z,20.64
2019-05-29T10:53:13.542Z,20.51
2019-05-29T10:54:13.559Z,20.39
2019-05-29T10:55:13.580Z,20.24
2019-05-29T10:56:13.604Z,20.11
2019-05-29T10:57:13.643Z,20.01
2019-05-29T10:58:13.665Z,19.81
2019-05-29T10:59:13.683Z,19.46
2019-05-29T11:00:13.715Z,18.75
2019-05-29T11:01:13.821Z,18.15
2019-05-29T11:02:13.903Z,17.58
2019-05-29T11:03:13.827Z,17.52
2019-05-29T11:04:13.894Z,17.74
2019-05-29T11:05:13.835Z,17.74
2019-05-29T11:06:28.557Z,18.39
2019-05-29T11:07:13.914Z,18.72
2019-05-29T11:08:13.908Z,19.02
2019-05-29T11:09:13.932Z,19.31
2019-05-29T11:10:18.038Z,19.11
2019-05-29T11:11:13.988Z,18.75
2019-05-29T11:12:14.008Z,19.14
2019-05-29T11:13:13.789Z,19.44
2019-05-29T11:14:14.078Z,18.87
2019-05-29T11:15:25.633Z,18.91
2019-05-29T11:18:14.155Z,20.1
2019-05-29T11:19:14.180Z,20.23
2019-05-29T11:20:14.210Z,19.84
2019-05-29T11:21:28.952Z,18.39
2019-05-29T11:22:29.994Z,18.27
2019-05-29T11:23:14.287Z,17.77
2019-05-29T11:26:14.371Z,18.42
2019-05-29T11:27:14.395Z,18.7
2019-05-29T11:28:29.066Z,18.76
2019-05-29T11:30:14.466Z,18.36
2019-05-29T11:31:14.272Z,17.74
2019-05-29T11:32:14.607Z,17.78
2019-05-29T11:33:14.646Z,17.93
2019-05-29T11:34:14.550Z,17.77
2019-05-29T11:35:14.568Z,18.03
2019-05-29T11:36:18.328Z,18.25
2019-05-29T11:37:14.614Z,18.5
2019-05-29T11:38:14.402Z,18.67
2019-05-29T11:39:14.687Z,18.73
2019-05-29T11:40:14.447Z,18.9
2019-05-29T11:41:29.864Z,18.92
2019-05-29T11:42:45.735Z,18.7
2019-05-29T11:43:14.783Z,18.76
2019-05-29T11:44:14.788Z,18.73
2019-05-29T11:45:14.835Z,18.11
2019-05-29T11:46:14.844Z,18.17
2019-05-29T11:47:14.864Z,18.41
2019-05-29T11:48:14.905Z,18.7
2019-05-29T11:49:14.924Z,18.88
2019-05-29T11:50:24.279Z,18.99
2019-05-29T11:51:14.958Z,19.02
2019-05-29T11:52:44.599Z,18.87
2019-05-29T11:53:29.431Z,19.19
2019-05-29T11:54:15.036Z,19.23
2019-05-29T11:55:15.092Z,19.63
2019-05-29T11:56:15.073Z,20.02
2019-05-29T11:57:15.108Z,20.21
2019-05-29T11:58:32.444Z,19.71
2019-05-29T12:00:24.829Z,19.84
2019-05-29T12:01:15.301Z,19.96
2019-05-29T12:02:15.243Z,19.91
2019-05-29T12:03:15.252Z,19.94
2019-05-29T12:04:30.138Z,20.01
2019-05-29T12:05:29.953Z,20.08
2019-05-29T12:06:15.436Z,20.23
2019-05-29T12:07:15.357Z,20.35
2019-05-29T12:08:15.373Z,20.1
2019-05-29T12:09:35.901Z,20.36
2019-05-29T12:10:15.712Z,20.38
2019-05-29T12:11:15.434Z,20.57
2019-05-29T12:12:30.134Z,20.95
2019-05-29T12:13:15.483Z,21.25
2019-05-29T12:14:15.513Z,21.42
2019-05-29T12:15:21.369Z,20.89
2019-05-29T12:16:15.553Z,21.06
2019-05-29T12:17:15.584Z,21.09
2019-05-29T12:18:27.840Z,20.23
2019-05-29T12:19:15.640Z,19.77
2019-05-29T12:20:32.329Z,19.44
2019-05-29T12:21:15.443Z,19.47
2019-05-29T12:22:15.708Z,19.07
2019-05-29T12:23:30.512Z,18.63
2019-05-29T12:24:15.757Z,18.58
2019-05-29T12:25:30.439Z,18.69
2019-05-29T12:26:26.599Z,18.82
2019-05-29T12:27:15.825Z,19.02
2019-05-29T12:28:15.860Z,18.88
2019-05-29T12:29:16.864Z,19.04
2019-05-29T12:30:15.921Z,19.19
2019-05-29T12:31:15.928Z,19.16
2019-05-29T12:32:17.422Z,19.1
2019-05-29T12:33:15.967Z,18.8
2019-05-29T12:34:23.873Z,18.87
2019-05-29T12:35:16.016Z,18.91
2019-05-29T12:36:16.037Z,18.7
2019-05-29T12:37:30.726Z,18.91
2019-05-29T12:38:16.140Z,19.14
2019-05-29T12:39:15.884Z,19.41
2019-05-29T12:40:16.324Z,19.33
2019-05-29T12:41:30.825Z,19.25
2019-05-29T12:42:30.617Z,19.13
2019-05-29T12:43:31.545Z,18.87
2019-05-29T12:44:16.243Z,19.21
2019-05-29T12:45:16.264Z,19.66
2019-05-29T12:46:16.358Z,19.77
2019-05-29T12:47:16.318Z,20.21
2019-05-29T12:48:19.807Z,20.08
2019-05-29T12:50:16.376Z,20.11
2019-05-29T12:51:16.454Z,19.91
2019-05-29T12:52:16.231Z,19.91
2019-05-29T12:53:33.928Z,19.76
2019-05-29T12:54:16.490Z,19.81
2019-05-29T12:55:16.546Z,20.05
2019-05-29T12:56:31.198Z,19.95
2019-05-29T12:57:16.543Z,19.99
2019-05-29T12:58:16.575Z,20.18
2019-05-29T12:59:16.594Z,20.21
2019-05-29T13:00:16.616Z,20.51
2019-05-29T13:01:16.659Z,20.31
2019-05-29T13:02:16.674Z,19.81
2019-05-29T13:03:16.705Z,19.71
2019-05-29T13:04:16.716Z,19.61
2019-05-29T13:05:23.556Z,19.43
2019-05-29T13:07:16.784Z,19.5
2019-05-29T13:08:16.813Z,19.66
2019-05-29T13:09:16.833Z,19.84
2019-05-29T13:10:34.235Z,19.8
2019-05-29T13:11:16.881Z,19.55
2019-05-29T13:12:16.908Z,19.47
2019-05-29T13:13:16.927Z,19.44
2019-05-29T13:14:16.956Z,19.11
2019-05-29T13:15:17.015Z,19.18
2019-05-29T13:16:17.006Z,19.61
2019-05-29T13:17:17.031Z,19.59
2019-05-29T13:18:17.050Z,19.59
2019-05-29T13:19:17.073Z,19.76
2019-05-29T13:20:41.079Z,19.74
2019-05-29T13:21:17.120Z,19.69
2019-05-29T13:22:17.146Z,19.74
2019-05-29T13:23:17.368Z,20.16
2019-05-29T13:24:16.954Z,19.92
2019-05-29T13:25:17.217Z,19.58
2019-05-29T13:26:17.242Z,19.4
2019-05-29T13:27:17.287Z,18.75
2019-05-29T13:28:31.705Z,18.44
2019-05-29T13:29:17.318Z,18.48
2019-05-29T13:30:17.366Z,18.5
2019-05-29T13:31:17.380Z,18.48
2019-05-29T13:32:17.439Z,18.78
2019-05-29T13:33:17.436Z,19.19
2019-05-29T13:34:17.445Z,19.02
2019-05-29T13:35:21.633Z,19.13
2019-05-29T13:36:32.154Z,18.82
2019-05-29T13:37:17.506Z,18.65
2019-05-29T13:40:17.577Z,18.55
2019-05-29T13:41:17.606Z,18.84
2019-05-29T13:42:17.621Z,18.85
2019-05-29T13:43:20.556Z,18.95
2019-05-29T13:44:32.332Z,19.11
2019-05-29T13:45:23.323Z,19.13
2019-05-29T13:46:17.722Z,19.32